This is the latest recevied weather packets stored in our database for station/object KK7MLS-13. If no packets are shown the sender has not sent any weather packets the latest 10 day(s).
| Time | Temp. | Humidity | Pressure | Rain* | Wind** | Luminosity | Snow |
|---|---|---|---|---|---|---|---|
| 1788058510 | 17.78° C | 56% | 1019.6 hPa | 0 mm | - | 2 W/m² | - |
| 1788058204 | 17.78° C | 55% | 1019.5 hPa | 0 mm | - | 3 W/m² | - |
| 1788057899 | 18.33° C | 54% | 1019.7 hPa | 0 mm | - | 4 W/m² | - |
| 1788057597 | 18.33° C | 51% | 1019.3 hPa | 0 mm | - | 6 W/m² | - |
| 1788057294 | 18.89° C | 51% | 1019.5 hPa | 0 mm | - | 8 W/m² | - |
| 1788056993 | 18.89° C | 51% | 1019.4 hPa | 0 mm | - | 9 W/m² | - |
| 1788056685 | 18.89° C | 50% | 1019.4 hPa | 0 mm | - | 11 W/m² | - |
| 1788056380 | 19.44° C | 50% | 1019.3 hPa | 0 mm | - | 13 W/m² | - |
| 1788056079 | 19.44° C | 48% | 1019.4 hPa | 0 mm | - | 15 W/m² | - |
| 1788055774 | 20° C | 47% | 1019.5 hPa | 0 mm | - | 16 W/m² | - |
| 1788055474 | 20° C | 46% | 1019.3 hPa | 0 mm | - | 18 W/m² | - |
| 1788055169 | 20.56° C | 44% | 1019.3 hPa | 0 mm | - | 19 W/m² | - |
| 1788054864 | 20.56° C | 43% | 1019.4 hPa | 0 mm | - | 21 W/m² | - |
| 1788054559 | 21.11° C | 42% | 1019.2 hPa | 0 mm | - | 23 W/m² | - |
| 1788054255 | 22.22° C | 41% | 1019.3 hPa | 0 mm | - | 26 W/m² | - |
| 1788053951 | 22.78° C | 39% | 1019.1 hPa | 0 mm | - | 26 W/m² | - |
| 1788053646 | 22.78° C | 39% | 1019.1 hPa | 0 mm | - | 27 W/m² | - |
| 1788053341 | 22.78° C | 39% | 1019.2 hPa | 0 mm | - | 30 W/m² | - |
| 1788053037 | 24.44° C | 37% | 1019.1 hPa | 0 mm | - | 44 W/m² | - |
| 1788052733 | 25° C | 37% | 1019 hPa | 0 mm | - | 106 W/m² | - |
| 1788052429 | 24.44° C | 36% | 1019 hPa | 0 mm | - | 90 W/m² | - |
| 1788052129 | 23.33° C | 40% | 1019 hPa | 0 mm | - | 94 W/m² | - |
| 1788051823 | 23.89° C | 39% | 1019.1 hPa | 0 mm | - | 77 W/m² | - |
| 1788051518 | 24.44° C | 38% | 1019.1 hPa | 0 mm | - | 108 W/m² | - |
| 1788051216 | 23.89° C | 39% | 1019 hPa | 0 mm | - | 78 W/m² | - |
* Rain latest hour (hover to see other rain measurements)
** Current wind speed in m/s (hover to see current wind gust speed)